createdAt,value
2022-10-03T00:00:42.338Z,100055.78
2022-10-03T00:06:15.501Z,100071.91
2022-10-03T00:12:10.835Z,100084.84
2022-10-03T00:17:27.415Z,100099.00
2022-10-03T00:22:48.231Z,100096.34
2022-10-03T00:28:05.287Z,100109.31
2022-10-03T00:33:36.385Z,100105.13
2022-10-03T00:38:40.735Z,100113.22
2022-10-03T00:44:19.899Z,100103.63
2022-10-03T00:49:39.099Z,100108.84
2022-10-03T00:55:11.333Z,100115.75
2022-10-03T01:00:26.031Z,100118.59
2022-10-03T01:05:46.539Z,100123.63
2022-10-03T01:11:28.771Z,100129.84
2022-10-03T01:17:05.471Z,100125.13
2022-10-03T01:22:22.293Z,100128.00
2022-10-03T01:28:10.359Z,100122.97
2022-10-03T01:33:24.683Z,100126.31
2022-10-03T01:38:58.815Z,100118.75
2022-10-03T01:44:24.557Z,100114.19
2022-10-03T01:49:47.421Z,100119.75
2022-10-03T01:55:04.054Z,100123.63
2022-10-03T02:00:14.637Z,100112.53
2022-10-03T02:05:48.287Z,100123.47
2022-10-03T02:11:08.504Z,100119.63
2022-10-03T02:16:52.827Z,100126.56
2022-10-03T02:21:56.902Z,100130.91
2022-10-03T02:27:31.745Z,100133.81
2022-10-03T02:32:58.472Z,100140.69
2022-10-03T02:38:17.652Z,100137.81
2022-10-03T02:43:50.244Z,100152.81
2022-10-03T02:49:13.378Z,100149.94
2022-10-03T02:54:33.298Z,100156.00
2022-10-03T03:00:07.211Z,100166.94
2022-10-03T03:05:37.171Z,100167.44
2022-10-03T03:10:52.487Z,100177.88
2022-10-03T03:16:18.447Z,100181.22
2022-10-03T03:21:41.933Z,100178.91
2022-10-03T03:26:50.811Z,100184.78
2022-10-03T03:32:11.028Z,100187.81
2022-10-03T03:37:44.724Z,100194.22
2022-10-03T03:43:08.803Z,100201.63
2022-10-03T03:48:28.784Z,100208.50
2022-10-03T03:53:54.060Z,100201.44
2022-10-03T03:59:32.625Z,100201.63
2022-10-03T04:04:52.125Z,100193.69
2022-10-03T04:10:26.274Z,100200.09
2022-10-03T04:15:36.083Z,100203.31
2022-10-03T04:21:09.833Z,100202.28
2022-10-03T04:26:31.259Z,100204.47
2022-10-03T04:31:44.220Z,100203.31
2022-10-03T04:36:55.152Z,100204.16
2022-10-03T04:42:08.210Z,100194.69
2022-10-03T04:47:19.129Z,100208.00
2022-10-03T04:52:47.720Z,100209.00
2022-10-03T04:58:06.811Z,100209.53
2022-10-03T05:03:28.612Z,100202.09
2022-10-03T05:08:54.690Z,100217.59
2022-10-03T05:14:12.734Z,100218.25
2022-10-03T05:19:29.555Z,100218.44
2022-10-03T05:24:49.579Z,100228.19
2022-10-03T05:30:06.969Z,100230.69
2022-10-03T05:35:31.334Z,100234.41
2022-10-03T05:40:37.198Z,100245.38
2022-10-03T05:45:48.890Z,100243.00
2022-10-03T05:51:15.598Z,100247.88
2022-10-03T05:56:44.911Z,100260.34
2022-10-03T06:02:35.894Z,100267.91
2022-10-03T06:07:56.276Z,100277.34
2022-10-03T06:13:04.063Z,100278.03
2022-10-03T06:18:26.895Z,100278.53
2022-10-03T06:23:47.019Z,100277.19
2022-10-03T06:29:46.514Z,100287.00
2022-10-03T06:35:19.069Z,100297.09
2022-10-03T06:40:32.602Z,100305.88
2022-10-03T06:45:50.127Z,100316.63
2022-10-03T06:51:46.220Z,100328.78
2022-10-03T06:57:13.042Z,100326.94
2022-10-03T07:02:20.793Z,100338.22
2022-10-03T07:07:40.924Z,100332.81
2022-10-03T07:13:11.676Z,100328.97
2022-10-03T07:18:27.683Z,100325.75
2022-10-03T07:24:10.216Z,100335.66
2022-10-03T07:29:14.635Z,100340.56
2022-10-03T07:34:31.041Z,100348.31
2022-10-03T07:40:11.352Z,100354.63
2022-10-03T07:45:34.729Z,100355.31
2022-10-03T07:51:15.131Z,100361.38
2022-10-03T07:56:32.407Z,100368.09
2022-10-03T08:01:42.767Z,100364.78
2022-10-03T08:06:56.063Z,100366.59
2022-10-03T08:12:12.941Z,100378.81
2022-10-03T08:17:57.280Z,100387.69
2022-10-03T08:23:34.620Z,100385.09
2022-10-03T08:28:58.121Z,100386.13
2022-10-03T08:34:38.565Z,100376.66
2022-10-03T08:39:49.345Z,100385.25
2022-10-03T08:45:05.876Z,100388.81
2022-10-03T08:50:25.600Z,100401.78
2022-10-03T08:55:45.639Z,100392.63
2022-10-03T09:01:23.602Z,100397.97
2022-10-03T09:07:17.128Z,100402.16
2022-10-03T09:12:51.070Z,100407.25
2022-10-03T09:18:11.022Z,100406.16
2022-10-03T09:23:38.902Z,100406.19
2022-10-03T09:28:48.057Z,100398.16
2022-10-03T09:33:55.804Z,100400.31
2022-10-03T09:39:26.564Z,100401.59
2022-10-03T09:44:46.358Z,100396.88
2022-10-03T09:50:28.619Z,100396.56
2022-10-03T09:55:36.480Z,100404.78
2022-10-03T10:01:10.916Z,100394.91
2022-10-03T10:06:15.446Z,100406.44
2022-10-03T10:11:41.703Z,100405.63
2022-10-03T10:17:20.191Z,100410.75
2022-10-03T10:22:49.966Z,100406.41
2022-10-03T10:28:06.615Z,100405.50
2022-10-03T10:33:30.042Z,100406.75
2022-10-03T10:38:56.853Z,100406.72
2022-10-03T10:44:29.541Z,100398.47
2022-10-03T10:49:46.101Z,100401.59
2022-10-03T10:55:15.389Z,100398.41
2022-10-03T11:00:37.541Z,100395.81
2022-10-03T11:05:46.990Z,100411.97
2022-10-03T11:11:01.082Z,100393.59
2022-10-03T11:16:08.473Z,100394.25
2022-10-03T11:21:52.761Z,100392.66
2022-10-03T11:27:00.155Z,100393.19
2022-10-03T11:32:13.801Z,100390.94
2022-10-03T11:37:38.770Z,100402.03
2022-10-03T11:43:00.635Z,100400.16
2022-10-03T11:48:33.368Z,100395.56
2022-10-03T11:54:03.626Z,100396.13
2022-10-03T11:59:32.880Z,100407.59
2022-10-03T12:04:45.629Z,100406.03
2022-10-03T12:10:30.454Z,100400.47
2022-10-03T12:15:45.687Z,100399.03
2022-10-03T12:21:08.241Z,100396.75
2022-10-03T12:26:17.372Z,100396.75
2022-10-03T12:31:36.176Z,100407.78
2022-10-03T12:37:02.892Z,100411.00
2022-10-03T12:42:24.419Z,100399.56
2022-10-03T12:47:56.333Z,100406.09
2022-10-03T12:53:16.316Z,100397.44
2022-10-03T12:58:39.049Z,100392.94
2022-10-03T13:03:50.737Z,100394.06
2022-10-03T13:09:10.752Z,100394.53
2022-10-03T13:14:33.882Z,100404.53
2022-10-03T13:19:58.171Z,100412.34
2022-10-03T13:25:14.790Z,100400.41
2022-10-03T13:30:31.359Z,100384.06
2022-10-03T13:35:58.861Z,100392.47
2022-10-03T13:41:06.484Z,100384.47
2022-10-03T13:46:16.735Z,100386.34
2022-10-03T13:51:34.665Z,100376.69
2022-10-03T13:57:05.491Z,100379.41
2022-10-03T14:02:08.463Z,100371.19
2022-10-03T14:07:16.167Z,100379.94
2022-10-03T14:13:12.704Z,100374.91
2022-10-03T14:18:39.035Z,100389.22
2022-10-03T14:23:59.860Z,100384.34
2022-10-03T14:29:14.746Z,100382.03
2022-10-03T14:34:19.382Z,100370.53
2022-10-03T14:39:46.578Z,100367.63
2022-10-03T14:44:57.294Z,100369.47
2022-10-03T14:50:00.317Z,100371.06
2022-10-03T14:55:15.280Z,100377.84
2022-10-03T15:00:27.520Z,100382.16
2022-10-03T15:05:35.329Z,100387.84
2022-10-03T15:10:37.752Z,100395.03
2022-10-03T15:15:42.026Z,100384.00
2022-10-03T15:20:46.220Z,100382.88
2022-10-03T15:25:53.875Z,100385.38
2022-10-03T15:30:58.199Z,100374.72
2022-10-03T15:36:25.642Z,100379.00
2022-10-03T15:41:50.334Z,100365.69
2022-10-03T15:46:56.931Z,100368.28
2022-10-03T15:52:09.684Z,100357.69
2022-10-03T15:57:33.243Z,100358.34
2022-10-03T16:02:43.261Z,100355.00
2022-10-03T16:08:09.316Z,100361.56
2022-10-03T16:13:16.744Z,100357.75
2022-10-03T16:18:18.386Z,100357.75
2022-10-03T16:23:24.572Z,100360.34
2022-10-03T16:28:30.654Z,100357.19
2022-10-03T16:33:40.783Z,100360.34
2022-10-03T16:38:52.493Z,100368.84
2022-10-03T16:43:56.710Z,100367.09
2022-10-03T16:49:20.613Z,100367.63
2022-10-03T16:54:24.072Z,100377.38
2022-10-03T16:59:28.605Z,100376.75
2022-10-03T17:04:39.530Z,100376.34
2022-10-03T17:09:46.500Z,100388.34
2022-10-03T17:14:48.597Z,100372.50
2022-10-03T17:19:55.916Z,100374.72
2022-10-03T17:25:04.324Z,100387.03
2022-10-03T17:30:22.213Z,100381.81
2022-10-03T17:36:05.917Z,100388.84
2022-10-03T17:41:23.443Z,100400.06
2022-10-03T17:47:05.210Z,100403.88
2022-10-03T17:52:14.103Z,100394.75
2022-10-03T17:57:20.702Z,100391.38
2022-10-03T18:02:31.769Z,100382.06
2022-10-03T18:07:35.167Z,100394.78
2022-10-03T18:12:40.435Z,100408.66
2022-10-03T18:18:15.313Z,100407.25
2022-10-03T18:23:49.824Z,100413.00
2022-10-03T18:28:57.378Z,100408.06
2022-10-03T18:34:09.143Z,100400.31
2022-10-03T18:39:22.681Z,100407.91
2022-10-03T18:44:28.327Z,100397.31
2022-10-03T18:49:34.564Z,100405.75
2022-10-03T18:54:54.501Z,100393.94
2022-10-03T19:00:03.936Z,100372.53
2022-10-03T19:05:26.774Z,100382.84
2022-10-03T19:10:39.649Z,100380.63
2022-10-03T19:16:15.101Z,100380.81
2022-10-03T19:21:20.140Z,100383.66
2022-10-03T19:26:31.253Z,100394.97
2022-10-03T19:31:47.129Z,100391.44
2022-10-03T19:36:51.713Z,100388.09
2022-10-03T19:41:57.187Z,100388.09
2022-10-03T19:47:05.485Z,100394.31
2022-10-03T19:52:31.405Z,100389.44
2022-10-03T19:57:41.764Z,100388.41
2022-10-03T20:02:45.148Z,100386.38
2022-10-03T20:07:55.953Z,100386.19
2022-10-03T20:13:03.580Z,100385.34
2022-10-03T20:18:07.149Z,100382.78
2022-10-03T20:23:15.328Z,100379.94
2022-10-03T20:28:23.484Z,100382.13
2022-10-03T20:33:30.110Z,100380.59
2022-10-03T20:38:56.531Z,100380.06
2022-10-03T20:44:11.101Z,100383.75
2022-10-03T20:49:18.657Z,100376.53
2022-10-03T20:54:23.430Z,100378.06
2022-10-03T20:59:45.431Z,100380.41
2022-10-03T21:05:01.628Z,100376.88
2022-10-03T21:10:38.609Z,100383.44
2022-10-03T21:15:51.122Z,100383.84
2022-10-03T21:21:23.645Z,100375.53
2022-10-03T21:26:31.060Z,100385.16
2022-10-03T21:31:48.278Z,100380.75
2022-10-03T21:37:11.245Z,100369.13
2022-10-03T21:42:19.015Z,100367.44
2022-10-03T21:47:32.527Z,100362.53
2022-10-03T21:53:27.776Z,100364.25
2022-10-03T21:58:49.904Z,100367.41
2022-10-03T22:04:01.636Z,100365.41
2022-10-03T22:09:11.388Z,100364.03
2022-10-03T22:14:18.768Z,100367.94
2022-10-03T22:19:23.233Z,100368.09
2022-10-03T22:24:38.893Z,100361.19
2022-10-03T22:30:17.542Z,100364.38
2022-10-03T22:35:19.202Z,100359.16
2022-10-03T22:40:22.034Z,100359.69
2022-10-03T22:45:26.367Z,100357.78
2022-10-03T22:50:32.750Z,100357.31
2022-10-03T22:55:34.476Z,100359.34
2022-10-03T23:00:36.393Z,100356.13
2022-10-03T23:05:53.330Z,100350.59
2022-10-03T23:10:59.995Z,100351.91
2022-10-03T23:16:25.641Z,100354.78
2022-10-03T23:21:27.439Z,100353.59
2022-10-03T23:27:06.172Z,100353.59
2022-10-03T23:32:09.967Z,100361.38
2022-10-03T23:37:11.580Z,100352.25
2022-10-03T23:42:25.343Z,100349.75
2022-10-03T23:47:32.690Z,100357.31
2022-10-03T23:52:46.571Z,100353.59
2022-10-03T23:57:48.520Z,100358.31
